Map

Track Data

SID SEASON NUMBER BASIN SUBBASIN NAME ISO_TIME NATURE LAT LON WMO_WIND WMO_PRES WMO_AGENCY TRACK_TYPE DIST2LAND LANDFALL IFLAG USA_AGENCY USA_ATCF_ID USA_LAT USA_LON USA_RECORD USA_STATUS USA_WIND USA_PRES USA_SSHS USA_R34_NE USA_R34_SE USA_R34_SW USA_R34_NW USA_R50_NE USA_R50_SE USA_R50_SW USA_R50_NW USA_R64_NE USA_R64_SE USA_R64_SW USA_R64_NW USA_POCI USA_ROCI USA_RMW USA_EYE TOKYO_LAT TOKYO_LON TOKYO_GRADE TOKYO_WIND TOKYO_PRES TOKYO_R50_DIR TOKYO_R50_LONG TOKYO_R50_SHORT TOKYO_R30_DIR TOKYO_R30_LONG TOKYO_R30_SHORT TOKYO_LAND CMA_LAT CMA_LON CMA_CAT CMA_WIND CMA_PRES HKO_LAT HKO_LON HKO_CAT HKO_WIND HKO_PRES NEWDELHI_LAT NEWDELHI_LON NEWDELHI_GRADE NEWDELHI_WIND NEWDELHI_PRES NEWDELHI_CI NEWDELHI_DP NEWDELHI_POCI REUNION_LAT REUNION_LON REUNION_TYPE REUNION_WIND REUNION_PRES REUNION_TNUM REUNION_CI REUNION_RMW REUNION_R34_NE REUNION_R34_SE REUNION_R34_SW REUNION_R34_NW REUNION_R50_NE REUNION_R50_SE REUNION_R50_SW REUNION_R50_NW REUNION_R64_NE REUNION_R64_SE REUNION_R64_SW REUNION_R64_NW BOM_LAT BOM_LON BOM_TYPE BOM_WIND BOM_PRES BOM_TNUM BOM_CI BOM_RMW BOM_R34_NE BOM_R34_SE BOM_R34_SW BOM_R34_NW BOM_R50_NE BOM_R50_SE BOM_R50_SW BOM_R50_NW BOM_R64_NE BOM_R64_SE BOM_R64_SW BOM_R64_NW BOM_ROCI BOM_POCI BOM_EYE BOM_POS_METHOD BOM_PRES_METHOD NADI_LAT NADI_LON NADI_CAT NADI_WIND NADI_PRES WELLINGTON_LAT WELLINGTON_LON WELLINGTON_WIND WELLINGTON_PRES DS824_LAT DS824_LON DS824_STAGE DS824_WIND DS824_PRES TD9636_LAT TD9636_LON TD9636_STAGE TD9636_WIND TD9636_PRES TD9635_LAT TD9635_LON TD9635_WIND TD9635_PRES TD9635_ROCI NEUMANN_LAT NEUMANN_LON NEUMANN_CLASS NEUMANN_WIND NEUMANN_PRES MLC_LAT MLC_LON MLC_CLASS MLC_WIND MLC_PRES USA_GUST BOM_GUST BOM_GUST_PER REUNION_GUST REUNION_GUST_PER USA_SEAHGT USA_SEARAD_NE USA_SEARAD_SE USA_SEARAD_SW USA_SEARAD_NW STORM_SPEED STORM_DIR
1979126N04148 1979 36 WP MM DOT 1979-05-06 00:00:00 TS 4.00000 147.500 main 683 683 O________OO___ jtwc_wp WP041979 4.00000 147.500 15 -1 4.00000 147.500 TC 15 4.00000 147.500 1 15 10 270
1979126N04148 1979 36 WP MM DOT 1979-05-06 03:00:00 TS 4.00178 146.999 main 683 683 P________PP___ WP041979 3.99004 147.012 15 -1 3.99004 147.012 TC 15 4.02527 146.972 1 15 10 271
1979126N04148 1979 36 WP MM DOT 1979-05-06 06:00:00 TS 4.01677 146.482 main 683 683 O________OP___ jtwc_wp WP041979 4.00000 146.500 15 -1 4.00000 146.500 TC 15 4.05030 146.445 1 15 11 273
1979126N04148 1979 36 WP MM DOT 1979-05-06 09:00:00 TS 4.05339 145.940 main 699 699 P________PP___ WP041979 4.04249 145.950 15 -1 4.04249 145.950 TC 15 4.07518 145.921 1 15 11 274
1979126N04148 1979 36 WP MM DOT 1979-05-06 12:00:00 TS 4.10000 145.400 main 707 707 O________OO___ jtwc_wp WP041979 4.10000 145.400 15 -1 4.10000 145.400 TC 15 4.10000 145.400 1 15 10 275
1979126N04148 1979 36 WP MM DOT 1979-05-06 15:00:00 TS 4.14210 144.894 main 720 720 P________PP___ WP041979 4.14994 144.900 15 -1 4.14994 144.900 TC 15 4.12642 144.883 1 15 10 275
1979126N04148 1979 36 WP MM DOT 1979-05-06 18:00:00 TS 4.18743 144.388 main 747 747 O________OP___ jtwc_wp WP041979 4.20000 144.400 15 -1 4.20000 144.400 TC 15 4.16230 144.365 1 15 10 275
1979126N04148 1979 36 WP MM DOT 1979-05-06 21:00:00 TS 4.23398 143.856 main 767 767 P________PP___ WP041979 4.24246 143.865 15 -1 4.24246 143.865 TC 15 4.21703 143.839 1 15 11 276
1979126N04148 1979 36 WP MM DOT 1979-05-07 00:00:00 TS 4.30000 143.300 main 805 800 O________OO___ jtwc_wp WP041979 4.30000 143.300 15 -1 4.30000 143.300 TC 15 4.30000 143.300 1 15 11 278
1979126N04148 1979 36 WP MM DOT 1979-05-07 03:00:00 TS 4.39609 142.717 main 801 796 P________PP___ WP041979 4.37749 142.700 15 -1 4.37749 142.700 TC 15 4.43329 142.752 1 15 12 281
1979126N04148 1979 36 WP MM DOT 1979-05-07 06:00:00 TS 4.53076 142.129 main 797 795 O________OP___ jtwc_wp WP041979 4.50000 142.100 15 -1 4.50000 142.100 TC 15 4.59227 142.188 1 15 12 285
1979126N04148 1979 36 WP MM DOT 1979-05-07 09:00:00 TS 4.70832 141.568 main 796 787 P________PP___ WP041979 4.68492 141.550 15 -1 4.68492 141.550 TC 15 4.75512 141.605 1 15 12 288
1979126N04148 1979 36 WP MM DOT 1979-05-07 12:00:00 TS 4.90000 141.000 main 792 786 O________OO___ jtwc_wp WP041979 4.90000 141.000 15 -1 4.90000 141.000 TC 15 4.90000 141.000 1 15 12 289
1979126N04148 1979 36 WP MM DOT 1979-05-07 15:00:00 TS 5.10531 140.408 main 789 782 P________PP___ WP041979 5.13742 140.423 17 -1 5.13742 140.423 TC 17 5.04110 140.380 1 16 13 286
1979126N04148 1979 36 WP MM DOT 1979-05-07 18:00:00 TS 5.25159 139.779 main 793 775 O________OP___ jtwc_wp WP041979 5.30000 139.800 20 -1 5.30000 139.800 TC 20 5.15477 139.738 1 17 13 278
1979126N04148 1979 36 WP MM DOT 1979-05-07 21:00:00 TS 5.27863 139.112 main 770 727 P________PP___ WP041979 5.30992 139.130 20 -1 5.30992 139.130 TC 20 5.21605 139.077 1 18 14 268
1979126N04148 1979 36 WP MM DOT 1979-05-08 00:00:00 TS 5.20000 138.400 main 727 680 O________OO___ jtwc_wp WP041979 5.20000 138.400 20 -1 5.20000 138.400 TC 20 5.20000 138.400 1 20 15 260
1979126N04148 1979 36 WP MM DOT 1979-05-08 03:00:00 TS 5.02250 137.609 main 676 633 P________PP___ WP041979 5.02255 137.585 20 -1 5.02255 137.585 TC 20 5.02241 137.657 1 20 16 255
1979126N04148 1979 36 WP MM DOT 1979-05-08 06:00:00 TS 4.79261 136.836 main 630 597 O________OP___ jtwc_wp WP041979 4.80000 136.800 20 -1 4.80000 136.800 TC 20 4.77783 136.909 1 20 15 252
1979126N04148 1979 36 WP MM DOT 1979-05-08 09:00:00 TS 4.55635 136.177 main 597 571 P________PP___ WP041979 4.56239 136.163 20 -1 4.56239 136.163 TC 20 4.54429 136.207 1 20 13 252
1979126N04148 1979 36 WP MM DOT 1979-05-08 12:00:00 TS 4.40000 135.600 main 571 571 O________OO___ jtwc_wp WP041979 4.40000 135.600 20 -1 4.40000 135.600 TC 20 4.40000 135.600 1 20 12 262
1979126N04148 1979 36 WP MM DOT 1979-05-08 15:00:00 TS 4.38983 135.025 main 574 570 P________PP___ WP041979 4.38254 134.983 20 -1 4.38254 134.983 TC 20 4.40442 135.109 1 21 10 276
1979126N04148 1979 36 WP MM DOT 1979-05-08 18:00:00 TS 4.50407 134.574 main 577 573 O________OP___ jtwc_wp WP041979 4.50000 134.500 20 -1 4.50000 134.500 TC 20 4.51221 134.720 1 22 8 294
1979126N04148 1979 36 WP MM DOT 1979-05-08 21:00:00 TS 4.70292 134.334 main 589 589 P________PP___ WP041979 4.69743 134.290 22 -1 4.69743 134.290 TC 22 4.71390 134.422 1 23 8 327
1979126N04148 1979 36 WP MM DOT 1979-05-09 00:00:00 TS 5.15385 134.146 1008 tokyo main 639 639 OO_______OO___ jtwc_wp WP041979 5.00000 134.200 25 -1 7.00000 133.500 2 1008 0 0 0 5.00000 134.200 TC 25 5.00000 134.200 1 25 10 337
1979126N04148 1979 36 WP MM DOT 1979-05-09 03:00:00 TS 5.64905 133.941 main 673 673 PP_______PP___ WP041979 5.37001 134.035 25 -1 7.31506 133.278 2 1007 0 0 5.37001 134.035 TC 25 5.37412 134.085 1 25 11 340
1979126N04148 1979 36 WP MM DOT 1979-05-09 06:00:00 TS 6.16523 133.775 1006 tokyo main 701 699 OO_______OP___ jtwc_wp WP041979 5.80000 133.900 25 -1 7.60000 133.100 2 1006 0 0 0 5.80000 133.900 TC 25 5.81962 134.029 1 25 11 345
1979126N04148 1979 36 WP MM DOT 1979-05-09 09:00:00 TS 6.66004 133.671 main 727 726 PP_______PP___ WP041979 6.26496 133.872 25 -1 7.82992 132.980 2 1006 0 0 6.26496 133.872 TC 25 6.28032 133.960 1 25 9 345
1979126N04148 1979 36 WP MM DOT 1979-05-09 12:00:00 TS 7.02500 133.550 1006 tokyo main 741 733 OO_______OO___ jtwc_wp WP041979 6.70000 133.800 25 -1 8.00000 132.800 2 1006 0 0 0 6.70000 133.800 TC 25 6.70000 133.800 1 25 8 328
1979126N04148 1979 36 WP MM DOT 1979-05-09 15:00:00 TS 7.29560 133.279 main 739 695 PP_______PP___ WP041979 7.03740 133.582 25 -1 8.10750 132.452 2 1006 0 0 7.03740 133.582 TC 25 7.00008 133.499 1 25 8 306
1979126N04148 1979 36 WP MM DOT 1979-05-09 18:00:00 TS 7.51302 132.874 1006 tokyo main 695 639 OO_______OP___ jtwc_wp WP041979 7.30000 133.200 25 -1 8.20000 132.000 2 1006 0 0 0 7.30000 133.200 TC 25 7.25206 133.094 1 25 10 295
1979126N04148 1979 36 WP MM DOT 1979-05-09 21:00:00 TS 7.71074 132.361 main 639 573 PP_______PP___ WP041979 7.50747 132.667 25 -1 8.34999 131.515 2 1005 0 0 7.50747 132.667 TC 25 7.47802 132.593 1 25 11 288
1979126N04148 1979 36 WP MM DOT 1979-05-10 00:00:00 TS 7.86667 131.772 1004 tokyo main 573 508 OOOO_____OO___ jtwc_wp WP041979 7.70000 132.000 25 -1 8.50000 131.000 2 1004 0 0 0 8.00000 132.000 0 19 1008 7.20000 131.900 TD 25 1006 7.70000 132.000 TC 25 7.70000 132.000 1 25 13 285
1979126N04148 1979 36 WP MM DOT 1979-05-10 03:00:00 TS 8.04703 131.136 main 497 433 PPPP_____PP___ WP041979 7.94248 131.272 27 -1 8.60730 130.530 2 1004 0 0 8.13773 131.348 0 19 1007 7.41511 131.190 TD 25 1005 7.94248 131.272 TC 27 7.96648 131.336 1 26 14 286
1979126N04148 1979 36 WP MM DOT 1979-05-10 06:00:00 TS 8.24187 130.439 1004 tokyo main 422 353 OOOO_____OP___ jtwc_wp WP041979 8.20000 130.500 30 -1 8.70000 130.000 2 1004 0 0 0 8.30000 130.700 0 19 1006 7.70000 130.400 TD 25 1005 8.20000 130.500 TC 30 8.23030 130.590 1 27 15 287
1979126N04148 1979 36 WP MM DOT 1979-05-10 09:00:00 TS 8.47053 129.702 main 353 287 PPPP_____PP___ WP041979 8.47227 129.765 30 -1 8.80743 129.345 2 1004 0 0 8.49985 130.057 0 21 1006 8.09247 129.480 TD 25 1005 8.47227 129.765 TC 30 8.47889 129.799 1 28 16 287
1979126N04148 1979 36 WP MM DOT 1979-05-10 12:00:00 TS 8.70000 128.917 1004 tokyo main 277 198 OOOO_____OO___ jtwc_wp WP041979 8.70000 129.000 30 -1 8.90000 128.600 2 1004 0 0 0 8.70000 129.400 1 23 1006 8.50000 128.500 TD 25 1005 8.70000 129.000 TC 30 8.70000 129.000 1 30 16 284
1979126N04148 1979 36 WP MM DOT 1979-05-10 15:00:00 TS 8.85889 128.091 main 198 112 PPPP_____PP___ WP041979 8.80759 128.135 30 -1 8.95014 127.777 2 1004 0 0 8.87222 128.737 1 23 1005 8.83751 127.513 TD 25 1004 8.80759 128.135 TC 30 8.87829 128.250 1 30 16 280
1979126N04148 1979 36 WP MM DOT 1979-05-10 18:00:00 TS 8.98823 127.283 1004 tokyo main 112 43 OOOO_____OP___ jtwc_wp WP041979 8.90000 127.300 30 -1 9.00000 127.000 2 1004 0 0 0 9.00000 128.000 1 23 1004 9.10000 126.600 TD 25 1004 8.90000 127.300 TC 30 9.02938 127.499 1 30 15 280
1979126N04148 1979 36 WP MM DOT 1979-05-10 21:00:00 TS 9.12622 126.557 main 43 0 PPPP_____PP___ WP041979 9.08471 126.620 30 -1 9.09219 126.420 2 1004 0 0 9.04269 127.100 1 23 1004 9.28727 125.832 TD 25 1004 9.08471 126.620 TC 30 9.16578 126.750 1 30 14 281
1979126N04148 1979 36 WP MM DOT 1979-05-11 00:00:00 TS 9.26667 125.883 1004 tokyo main 0 0 OOOO_____OO___ jtwc_wp WP041979 9.30000 126.000 30 -1 9.20000 125.900 2 1004 0 0 0 9.10000 126.200 1 23 1004 9.40000 125.200 TD 25 1004 9.30000 126.000 TC 30 9.30000 126.000 1 30 14 283
1979126N04148 1979 36 WP MM DOT 1979-05-11 03:00:00 TS 9.42351 125.220 main 32 11 PPPP_____PP___ WP041979 9.51488 125.350 27 -1 9.29994 125.307 2 1004 0 0 9.29979 125.448 1 23 1004 9.45728 124.670 TD 25 1003 9.51488 125.350 TC 27 9.45431 125.193 1 28 13 283
1979126N04148 1979 36 WP MM DOT 1979-05-11 06:00:00 TS 9.56800 124.583 1004 tokyo main 11 0 OOOO_____OP___ jtwc_wp WP041979 9.70000 124.700 25 -1 9.40000 124.700 2 1004 0 0 0 9.50000 124.800 1 23 1004 9.50000 124.200 TD 25 1003 9.70000 124.700 TC 25 9.60798 124.395 1 27 13 281
1979126N04148 1979 36 WP MM DOT 1979-05-11 09:00:00 TS 9.67405 123.969 main 0 0 PPPP_____PP___ WP041979 9.80742 124.042 25 -1 9.49986 124.107 2 1004 0 0 9.57222 124.242 1 26 1004 9.59978 123.730 TD 25 1003 9.80742 124.042 TC 25 9.75758 123.650 1 26 12 279
1979126N04148 1979 36 WP MM DOT 1979-05-11 12:00:00 TS 9.76667 123.367 1004 tokyo main 0 0 OOOO_____OO___ jtwc_wp WP041979 9.90000 123.400 25 -1 9.60000 123.500 2 1004 0 0 0 9.60000 123.700 1 29 1004 9.70000 123.200 TD 25 1003 9.90000 123.400 TC 25 9.90000 123.000 1 25 12 279
1979126N04148 1979 36 WP MM DOT 1979-05-11 15:00:00 TS 9.86940 122.738 main 0 0 PPPP_____PP___ WP041979 10.0500 122.763 25 -1 9.69246 122.850 2 1004 0 0 9.65007 123.043 1 29 1004 9.74261 122.515 TD 25 1002 10.0500 122.763 TC 25 10.0312 122.495 1 25 12 280
1979126N04148 1979 36 WP MM DOT 1979-05-11 18:00:00 TS 9.97606 122.148 1004 tokyo main 39 35 OOOO_____OP___ jtwc_wp WP041979 10.2000 122.200 25 -1 9.80000 122.200 2 1004 0 0 0 9.70000 122.400 1 29 1004 9.80000 121.800 TD 25 1002 10.2000 122.200 TC 25 10.1564 122.087 1 25 11 281
1979126N04148 1979 36 WP MM DOT 1979-05-11 21:00:00 TS 10.0868 121.631 main 46 46 PPPP_____PP___ WP041979 10.3148 121.770 25 -1 9.94255 121.548 2 1003 0 0 9.73493 121.847 1 29 1003 9.93507 121.118 TD 25 1002 10.3148 121.770 TC 25 10.2783 121.736 1 25 10 283
1979126N04148 1979 36 WP MM DOT 1979-05-12 00:00:00 TS 10.2000 121.200 1002 tokyo main 79 79 OOOO_____OO___ jtwc_wp WP041979 10.4000 121.400 25 -1 10.1000 121.000 2 1002 0 0 0 9.80000 121.400 1 29 1002 10.1000 120.600 TD 25 1002 10.4000 121.400 TC 25 10.4000 121.400 1 25 8 285
1979126N04148 1979 36 WP MM DOT 1979-05-12 03:00:00 TS 10.2958 120.839 main 120 99 PPPP_____PP___ WP041979 10.4350 120.992 27 -1 10.2274 120.625 2 1001 0 0 9.93489 121.063 1 29 1001 10.2498 120.382 TD 27 1001 10.4350 120.992 TC 27 10.4926 120.977 1 26 7 288
1979126N04148 1979 36 WP MM DOT 1979-05-12 06:00:00 TS 10.4150 120.545 1000 tokyo main 88 65 OOOO_____OP___ jtwc_wp WP041979 10.5000 120.600 30 -1 10.4000 120.400 2 1000 0 0 0 10.1000 120.800 1 29 1000 10.4000 120.300 TD 30 1000 10.5000 120.600 TC 30 10.5902 120.567 1 27 6 296
1979126N04148 1979 36 WP MM DOT 1979-05-12 09:00:00 TS 10.5717 120.263 main 66 43 PPPP_____PP___ WP041979 10.6475 120.220 30 -1 10.6774 120.270 2 1000 0 0 10.2200 120.520 1 29 1000 10.5200 120.150 TD 30 998 10.6475 120.220 TC 30 10.7176 120.199 1 28 6 307
1979126N04148 1979 36 WP MM DOT 1979-05-12 12:00:00 TS 10.8000 120.033 1000 tokyo main 43 32 OOOO_____OO___ jtwc_wp WP041979 10.9000 119.900 30 -1 11.0000 120.200 2 1000 0 0 0 10.4000 120.300 1 29 1000 10.7000 120.000 TD 30 997 10.9000 119.900 TC 30 10.9000 119.900 1 30 7 324
1979126N04148 1979 36 WP MM DOT 1979-05-12 15:00:00 TS 11.1379 119.848 main 24 15 PPPP_____PP___ WP041979 11.2925 119.655 30 -1 11.3075 120.093 2 1000 0 0 10.7200 120.177 1 29 1000 11.0275 119.835 TD 30 996 11.2925 119.655 TC 30 11.1876 119.675 1 30 8 337
1979126N04148 1979 36 WP MM DOT 1979-05-12 18:00:00 TS 11.5045 119.720 1000 tokyo main 24 24 OOOO_____OP___ jtwc_wp WP041979 11.7000 119.500 30 -1 11.6000 120.000 2 1000 0 0 0 11.1000 120.100 1 29 1000 11.4000 119.700 TD 30 995 11.7000 119.500 TC 30 11.5272 119.523 1 30 7 343
1979126N04148 1979 36 WP MM DOT 1979-05-12 21:00:00 TS 11.8151 119.639 main 55 55 PPPP_____PP___ WP041979 11.9875 119.420 30 -1 11.8575 119.942 2 998 0 0 11.4650 119.993 1 29 997 11.7150 119.627 TD 32 993 11.9875 119.420 TC 30 11.8783 119.434 1 30 6 348
1979126N04148 1979 36 WP MM DOT 1979-05-13 00:00:00 TS 12.0833 119.600 35 996 tokyo main 89 89 OOOO_____OO___ jtwc_wp WP041979 12.2000 119.400 30 -1 12.1000 119.900 3 35 996 0 9 50 50 0 11.8000 119.900 1 29 995 12.0000 119.600 TS 35 992 12.2000 119.400 TC 30 12.2000 119.400 1 30 5 352
1979126N04148 1979 36 WP MM DOT 1979-05-13 03:00:00 TS 12.3046 119.564 main 111 111 PPPP_____PP___ WP041979 12.3500 119.378 30 -1 12.3575 119.835 3 35 995 0 9 50 50 12.0650 119.835 1 29 995 12.2650 119.578 TS 35 991 12.3500 119.378 TC 30 12.4399 119.383 1 31 4 354
1979126N04148 1979 36 WP MM DOT 1979-05-13 06:00:00 TS 12.5075 119.570 35 994 tokyo main 125 109 OOOO_____OP___ jtwc_wp WP041979 12.5000 119.400 30 -1 12.6000 119.800 3 35 994 0 9 50 50 0 12.3000 119.800 1 29 995 12.5000 119.600 TS 35 990 12.5000 119.400 TC 30 12.6449 119.417 1 32 4 7
1979126N04148 1979 36 WP MM DOT 1979-05-13 09:00:00 TS 12.7296 119.628 main 109 85 PPPP_____PP___ WP041979 12.7425 119.477 32 -1 12.8075 119.835 3 37 992 0 9 50 50 12.5500 119.792 1 33 992 12.7075 119.692 TS 35 989 12.7425 119.477 TC 32 12.8274 119.493 1 33 5 18
1979126N04148 1979 36 WP MM DOT 1979-05-13 12:00:00 TS 12.9500 119.717 40 990 tokyo main 78 58 OOOO_____OO___ jtwc_wp WP041979 13.0000 119.600 35 0 13.0000 119.900 3 40 990 0 9 50 50 0 12.8000 119.800 2 38 990 12.9000 119.800 TS 35 988 13.0000 119.600 TC 35 13.0000 119.600 2 35 5 20
1979126N04148 1979 36 WP MM DOT 1979-05-13 15:00:00 TS 13.1628 119.792 main 58 44 PPPP_____PP___ WP041979 13.2150 119.743 37 0 13.2075 119.950 3 40 987 0 9 50 50 13.0575 119.770 2 38 989 13.1000 119.850 TS 37 987 13.2150 119.743 TC 37 13.1821 119.697 2 36 4 22
1979126N04148 1979 36 WP MM DOT 1979-05-13 18:00:00 TS 13.3596 119.888 40 985 tokyo main 43 34 OOOO_____OP___ jtwc_wp WP041979 13.4000 119.900 40 0 13.4000 120.000 3 40 985 0 9 50 50 0 13.3000 119.800 2 38 988 13.3000 119.900 TS 40 987 13.4000 119.900 TC 40 13.3573 119.825 2 37 4 28
1979126N04148 1979 36 WP MM DOT 1979-05-13 21:00:00 TS 13.5360 120.000 main 34 31 PPPP_____PP___ WP041979 13.5574 120.028 40 0 13.5574 120.013 3 40 987 0 9 55 55 13.5075 119.970 2 38 987 13.5075 119.970 TS 40 986 13.5574 120.028 TC 40 13.5289 119.991 2 38 4 39
1979126N04148 1979 36 WP MM DOT 1979-05-14 00:00:00 TS 13.7000 120.167 40 990 tokyo main 35 21 OOOO_____OO___ jtwc_wp WP041979 13.7000 120.200 40 0 13.7000 120.100 3 40 990 0 9 60 60 0 13.7000 120.200 2 38 986 13.7000 120.100 TS 40 985 13.7000 120.200 TC 40 13.7000 120.200 2 40 5 51
1979126N04148 1979 36 WP MM DOT 1979-05-14 03:00:00 TS 13.8600 120.419 main 21 0 PPPP_____PP___ WP041979 13.8425 120.478 37 0 13.8501 120.377 3 993 0 9 13.8925 120.400 2 38 990 13.8575 120.328 TS 37 989 13.8425 120.478 TC 37 13.8751 120.457 2 36 6 58
1979126N04148 1979 36 WP MM DOT 1979-05-14 06:00:00 TS 14.0250 120.709 996 tokyo main 0 0 OOOO_____OP___ jtwc_wp WP041979 14.0000 120.800 35 0 14.0000 120.700 2 996 0 0 0 14.1000 120.600 2 38 995 14.0000 120.600 TS 35 994 14.0000 120.800 TC 35 14.0501 120.755 2 32 6 57
1979126N04148 1979 36 WP MM DOT 1979-05-14 09:00:00 TS 14.2100 120.966 main 0 0 PPPP_____PP___ WP041979 14.2000 121.100 30 -1 14.1424 120.893 2 999 0 0 14.3499 120.785 2 33 997 14.1424 120.843 TS 32 994 14.2000 121.100 TC 30 14.2251 121.076 2 28 6 54
1979126N04148 1979 36 WP MM DOT 1979-05-14 12:00:00 TS 14.4000 121.233 1002 tokyo main 0 0 OOOO_____OO___ jtwc_wp WP041979 14.4000 121.400 25 -1 14.3000 121.100 2 1002 0 0 0 14.6000 121.000 1 29 1000 14.3000 121.100 TD 30 995 14.4000 121.400 TC 25 14.4000 121.400 1 25 7 56
1979126N04148 1979 36 WP MM DOT 1979-05-14 15:00:00 TS 14.5751 121.525 main 0 0 PPPP_____PP___ WP041979 14.5500 121.700 25 -1 14.4924 121.405 2 1002 0 0 14.8074 121.270 1 29 1000 14.4925 121.385 TD 27 995 14.5500 121.700 TC 25 14.5585 121.688 1 25 7 59
1979126N04148 1979 36 WP MM DOT 1979-05-14 18:00:00 TS 14.7533 121.846 1002 tokyo main 15 15 OOOO_____OP___ jtwc_wp WP041979 14.7000 122.000 25 -1 14.7000 121.800 2 1002 0 0 0 15.0000 121.600 1 29 1000 14.7000 121.700 TD 25 996 14.7000 122.000 TC 25 14.7197 121.978 1 25 7 61
1979126N04148 1979 36 WP MM DOT 1979-05-14 21:00:00 TS 14.9368 122.192 main 58 58 PPPP_____PP___ WP041979 14.8849 122.293 25 -1 14.8777 122.300 2 1002 0 0 15.1849 121.970 1 29 1000 14.8924 122.020 TD 25 996 14.8849 122.293 TC 25 14.8960 122.279 1 25 8 60
1979126N04148 1979 36 WP MM DOT 1979-05-15 00:00:00 TS 15.1500 122.567 1002 tokyo main 110 100 OOOO_____OO___ jtwc_wp WP041979 15.1000 122.600 25 -1 15.1000 122.800 2 1002 0 0 0 15.4000 122.400 1 29 1001 15.1000 122.400 TD 25 997 15.1000 122.600 TC 25 15.1000 122.600 1 25 9 57
1979126N04148 1979 36 WP MM DOT 1979-05-15 03:00:00 TS 15.4159 122.960 main 123 116 PPPP_____PP___ WP041979 15.3349 122.935 25 -1 15.4498 123.172 2 1002 0 0 15.7075 122.892 1 29 1001 15.3426 122.892 TD 25 997 15.3349 122.935 TC 25 15.3256 122.930 1 25 9 55
1979126N04148 1979 36 WP MM DOT 1979-05-15 06:00:00 TS 15.6970 123.364 1002 tokyo main 140 140 OOOO_____OP___ jtwc_wp WP041979 15.6000 123.300 25 -1 15.8000 123.500 2 1002 0 0 0 16.0000 123.400 1 29 1001 15.6000 123.400 TD 25 998 15.6000 123.300 TC 25 15.5820 123.284 1 25 9 56
1979126N04148 1979 36 WP MM DOT 1979-05-15 09:00:00 TS 15.9340 123.757 main 174 171 PPPP_____PP___ WP041979 15.8774 123.678 25 -1 15.9999 123.835 2 1002 0 0 16.1424 123.865 1 29 1001 15.8348 123.815 TD 25 998 15.8774 123.678 TC 25 15.8724 123.671 1 25 9 57
1979126N04148 1979 36 WP MM DOT 1979-05-15 12:00:00 TS 16.2000 124.167 1002 tokyo main 197 193 OOOO_____OO___ jtwc_wp WP041979 16.2000 124.100 25 -1 16.2000 124.200 2 1002 0 0 0 16.3000 124.300 1 29 1001 16.1000 124.200 TD 25 999 16.2000 124.100 TC 25 16.2000 124.100 1 25 10 53
1979126N04148 1979 36 WP MM DOT 1979-05-15 15:00:00 TS 16.5498 124.607 main 228 226 PPPP_____PP___ WP041979 16.5849 124.578 25 -1 16.5350 124.642 2 1002 0 0 16.6273 124.700 1 29 1001 16.4274 124.593 TD 25 999 16.5849 124.578 TC 25 16.5393 124.555 1 25 11 50
1979126N04148 1979 36 WP MM DOT 1979-05-15 18:00:00 TS 16.9361 125.076 1002 tokyo main 276 276 OOOO_____OP___ jtwc_wp WP041979 17.0000 125.100 25 -1 16.9000 125.100 2 1002 0 0 0 17.0000 125.100 1 29 1001 16.8000 125.000 TD 25 1000 17.0000 125.100 TC 25 16.9168 125.054 1 25 12 50
1979126N04148 1979 36 WP MM DOT 1979-05-15 21:00:00 TS 17.3009 125.556 main 331 331 PPPP_____PP___ WP041979 17.3848 125.628 25 -1 17.1998 125.500 2 1002 0 0 17.2998 125.528 1 29 1002 17.2000 125.450 TD 25 1002 17.3848 125.628 TC 25 17.3359 125.602 1 25 12 52
1979126N04148 1979 36 WP MM DOT 1979-05-16 00:00:00 TS 17.6833 126.067 1002 tokyo main 390 390 OOOO_____OO___ jtwc_wp WP041979 17.8000 126.200 25 -1 17.5000 125.900 2 1002 0 0 0 17.6000 126.000 1 29 1004 17.6000 125.900 TD 25 1005 17.8000 126.200 TC 25 17.8000 126.200 1 25 13 51
1979126N04148 1979 36 WP MM DOT 1979-05-16 03:00:00 TS 18.0890 126.586 main 451 451 PPPP_____PP___ WP041979 18.2698 126.820 25 -1 17.8196 126.298 2 1002 0 0 17.9122 126.506 1 29 1004 17.9571 126.270 TD 25 1005 18.2698 126.820 TC 25 18.3056 126.802 1 25 14 51
1979126N04148 1979 36 WP MM DOT 1979-05-16 06:00:00 TS 18.5527 127.197 1002 tokyo main 517 517 OOOO_____OP___ jtwc_wp WP041979 18.8000 127.500 25 -1 18.2000 126.800 2 1002 0 0 0 18.3000 127.100 1 29 1004 18.3000 126.700 TD 25 1006 18.8000 127.500 TC 25 18.8528 127.460 1 25 16 51
1979126N04148 1979 36 WP MM DOT 1979-05-16 09:00:00 TS 19.0824 127.902 main 594 594 PPPP_____PP___ WP041979 19.3844 128.198 25 -1 18.6468 127.446 2 1002 0 0 18.7896 127.783 1 29 1004 18.6483 127.297 TD 25 1006 19.3844 128.198 TC 25 19.4237 128.188 1 25 19 52
1979126N04148 1979 36 WP MM DOT 1979-05-16 12:00:00 TS 19.6857 128.743 1002 tokyo main 688 688 OOOO_____OO___ jtwc_wp WP041979 20.0000 129.000 25 -1 19.2000 128.300 2 1002 0 0 0 19.4000 128.600 1 29 1004 19.0000 128.000 TD 25 1006 20.0000 129.000 TC 25 20.0000 129.000 1 25 22 54
1979126N04148 1979 36 WP MM DOT 1979-05-16 15:00:00 TS 20.3526 129.741 main 807 807 PPP______PP___ WP041979 20.6150 129.963 25 -1 19.8396 129.354 2 1002 0 0 20.1267 129.518 1 29 1004 TD 20.6150 129.963 TC 25 20.5666 129.906 1 25 23 56
1979126N04148 1979 36 WP MM DOT 1979-05-16 18:00:00 TS 20.9744 130.792 1002 tokyo main 935 935 OOO______OP___ jtwc_wp WP041979 21.2000 131.000 25 -1 20.6000 130.600 2 1002 0 0 0 20.9000 130.600 1 29 1004 21.2000 131.000 TC 25 21.1214 130.890 1 25 24 59
1979126N04148 1979 36 WP MM DOT 1979-05-16 21:00:00 TS 21.6024 131.944 main 1056 1000 PPP______PP___ WP041979 21.7208 132.012 25 -1 21.4706 132.000 2 1002 0 0 21.5842 131.827 1 29 1004 21.7208 132.012 TC 25 21.6654 131.930 1 25 26 59
1979126N04148 1979 36 WP MM DOT 1979-05-17 00:00:00 TS 22.3091 133.218 1002 tokyo main 1002 948 OOO______OO___ jtwc_wp WP041979 22.2000 133.000 25 -1 22.4000 133.400 2 1002 0 0 0 22.3000 133.200 1 29 1004 22.2000 133.000 TC 25 22.2000 133.000 1 25 29 56
1979126N04148 1979 36 WP MM DOT 1979-05-17 03:00:00 TS 23.2228 134.590 main 952 923 _PP___________ WP041979 -1 23.3114 134.516 2 1002 0 0 23.1342 134.663 1 26 1005 TC 1 31 54
1979126N04148 1979 36 WP MM DOT 1979-05-17 06:00:00 TS 24.1000 135.950 1002 tokyo main 930 922 _OO___________ -1 24.2000 135.700 2 1002 0 0 0 24.0000 136.200 1 23 1006 1 32 57
1979126N04148 1979 36 WP MM DOT 1979-05-17 09:00:00 TS 24.9232 137.489 main 939 916 _PP___________ -1 25.0262 137.232 2 1004 0 0 24.8203 137.747 1 23 1006 1 33 61
1979126N04148 1979 36 WP MM DOT 1979-05-17 12:00:00 ET 25.7000 139.150 1006 tokyo main 919 _OO___________ -1 25.8000 139.000 6 1006 0 0 0 25.6000 139.300 9 23 1006 34 63

Digital Typhoon Data and Search

About IBTrACS Database

This database is a web-friendly format of International Best Track Archive for Climate Stewardship (IBTrACS), a global best track data archive curated by NOAA dating back to 1842.

Updated: 2021-10-08